createdAt,value
2018-09-15T00:02:22.560Z,10.43
2018-09-15T00:04:51.706Z,8.73
2018-09-15T00:07:20.862Z,8.70
2018-09-15T00:09:50.066Z,7.07
2018-09-15T00:12:19.395Z,7.73
2018-09-15T00:14:48.535Z,8.70
2018-09-15T00:17:17.737Z,7.63
2018-09-15T00:19:47.266Z,7.57
2018-09-15T00:22:16.654Z,10.23
2018-09-15T00:24:45.939Z,19.67
2018-09-15T00:27:15.102Z,15.80
2018-09-15T00:29:44.274Z,15.40
2018-09-15T00:32:13.479Z,20.20
2018-09-15T00:34:42.630Z,20.20
2018-09-15T00:37:11.813Z,19.83
2018-09-15T00:39:41.158Z,13.60
2018-09-15T00:42:10.333Z,22.60
2018-09-15T00:44:39.505Z,23.90
2018-09-15T00:47:08.725Z,9.23
2018-09-15T00:49:37.890Z,19.47
2018-09-15T00:52:07.113Z,9.90
2018-09-15T00:54:36.290Z,15.60
2018-09-15T00:57:05.493Z,25.47
2018-09-15T00:59:34.651Z,26.87
2018-09-15T01:02:07.051Z,13.23
2018-09-15T01:04:36.242Z,20.47
2018-09-15T01:07:05.414Z,24.13
2018-09-15T01:09:34.643Z,8.80
2018-09-15T01:12:03.781Z,9.30
2018-09-15T01:14:33.057Z,9.77
2018-09-15T01:17:02.241Z,11.40
2018-09-15T01:21:00.851Z,12.07
2018-09-15T01:23:30.226Z,10.27
2018-09-15T01:25:59.384Z,17.40
2018-09-15T01:28:28.564Z,20.17
2018-09-15T01:30:57.742Z,16.00
2018-09-15T01:33:26.991Z,14.30
2018-09-15T01:35:56.145Z,8.80
2018-09-15T01:38:25.411Z,10.80
2018-09-15T01:40:54.573Z,9.97
2018-09-15T01:43:23.801Z,9.20
2018-09-15T01:45:52.978Z,9.10
2018-09-15T01:48:22.141Z,9.00
2018-09-15T01:50:51.292Z,19.40
2018-09-15T01:53:20.474Z,16.80
2018-09-15T01:55:49.638Z,8.07
2018-09-15T01:58:18.770Z,20.40
2018-09-15T02:00:47.981Z,23.37
2018-09-15T02:03:17.132Z,20.00
2018-09-15T02:05:46.282Z,19.63
2018-09-15T02:08:15.457Z,15.10
2018-09-15T02:11:06.746Z,21.77
2018-09-15T02:13:35.933Z,21.70
2018-09-15T02:16:05.085Z,20.60
2018-09-15T02:18:34.258Z,23.70
2018-09-15T02:21:03.433Z,12.63
2018-09-15T02:23:32.643Z,21.27
2018-09-15T02:26:01.805Z,17.30
2018-09-15T02:28:30.987Z,19.80
2018-09-15T02:31:00.140Z,11.97
2018-09-15T02:33:29.293Z,16.60
2018-09-15T02:35:58.483Z,16.00
2018-09-15T02:38:27.699Z,16.03
2018-09-15T02:40:56.845Z,15.03
2018-09-15T02:43:26.039Z,15.03
2018-09-15T02:45:55.200Z,15.57
2018-09-15T02:48:24.364Z,8.97
2018-09-15T02:50:53.557Z,6.47
2018-09-15T02:53:22.708Z,10.73
2018-09-15T02:55:51.891Z,15.20
2018-09-15T02:58:21.100Z,16.60
2018-09-15T03:00:50.318Z,7.43
2018-09-15T03:03:19.493Z,13.20
2018-09-15T03:05:48.745Z,14.27
2018-09-15T03:08:17.897Z,15.33
2018-09-15T03:10:47.113Z,14.50
2018-09-15T03:13:16.309Z,17.10
2018-09-15T03:15:45.479Z,16.87
2018-09-15T03:18:14.669Z,15.50
2018-09-15T03:20:43.880Z,14.93
2018-09-15T03:23:13.081Z,15.17
2018-09-15T03:25:42.289Z,17.67
2018-09-15T03:28:11.485Z,15.10
2018-09-15T03:30:40.655Z,15.57
2018-09-15T03:33:09.873Z,7.47
2018-09-15T03:36:04.338Z,13.67
2018-09-15T03:38:33.538Z,10.10
2018-09-15T03:41:02.714Z,16.57
2018-09-15T03:43:31.997Z,9.30
2018-09-15T03:46:01.154Z,11.47
2018-09-15T03:48:30.305Z,8.60
2018-09-15T03:50:59.489Z,8.53
2018-09-15T03:53:28.630Z,17.47
2018-09-15T03:55:57.813Z,12.80
2018-09-15T03:58:27.004Z,18.53
2018-09-15T04:00:56.194Z,15.60
2018-09-15T04:03:25.346Z,17.03
2018-09-15T04:05:54.549Z,16.50
2018-09-15T04:08:23.705Z,18.63
2018-09-15T04:10:52.869Z,14.90
2018-09-15T04:13:22.158Z,5.87
2018-09-15T04:15:51.325Z,6.83
2018-09-15T04:18:20.482Z,8.87
2018-09-15T04:20:49.686Z,16.80
2018-09-15T04:23:18.841Z,17.93
2018-09-15T04:25:48.593Z,11.13
2018-09-15T04:28:17.803Z,15.43
2018-09-15T04:30:46.987Z,14.73
2018-09-15T04:33:16.153Z,12.40
2018-09-15T04:35:45.391Z,9.50
2018-09-15T04:38:14.535Z,6.23
2018-09-15T04:40:43.685Z,11.60
2018-09-15T04:43:12.870Z,16.00
2018-09-15T04:45:42.039Z,17.47
2018-09-15T04:48:11.207Z,18.17
2018-09-15T04:50:40.439Z,20.70
2018-09-15T04:53:09.631Z,21.83
2018-09-15T04:55:38.872Z,19.60
2018-09-15T04:58:08.073Z,20.90
2018-09-15T05:00:37.247Z,22.63
2018-09-15T05:03:06.594Z,14.10
2018-09-15T05:05:35.863Z,23.80
2018-09-15T05:08:05.429Z,21.83
2018-09-15T05:10:34.594Z,20.70
2018-09-15T05:13:07.453Z,20.70
2018-09-15T05:15:36.822Z,20.33
2018-09-15T05:19:35.234Z,25.60
2018-09-15T05:22:04.384Z,16.37
2018-09-15T05:24:33.550Z,22.37
2018-09-15T05:27:06.630Z,27.80
2018-09-15T05:29:35.782Z,26.00
2018-09-15T05:32:06.595Z,18.13
2018-09-15T05:34:36.152Z,21.90
2018-09-15T05:37:05.332Z,20.80
2018-09-15T05:39:34.510Z,15.57
2018-09-15T05:42:03.818Z,13.30
2018-09-15T05:44:33.044Z,24.90
2018-09-15T05:47:02.209Z,13.40
2018-09-15T05:49:31.388Z,17.93
2018-09-15T05:52:00.657Z,18.50
2018-09-15T05:54:29.817Z,23.87
2018-09-15T05:56:59.040Z,18.67
2018-09-15T05:59:28.210Z,19.47
2018-09-15T06:02:08.661Z,23.10
2018-09-15T06:04:37.885Z,27.63
2018-09-15T06:07:07.097Z,13.93
2018-09-15T06:09:36.286Z,23.80
2018-09-15T06:12:05.501Z,21.27
2018-09-15T06:14:34.694Z,21.87
2018-09-15T06:17:03.913Z,22.43
2018-09-15T06:19:33.073Z,22.27
2018-09-15T06:22:02.302Z,21.53
2018-09-15T06:24:32.379Z,14.07
2018-09-15T06:27:01.571Z,21.30
2018-09-15T06:29:30.800Z,11.00
2018-09-15T06:32:06.337Z,22.63
2018-09-15T06:34:35.551Z,22.50
2018-09-15T06:37:06.608Z,18.20
2018-09-15T06:39:35.777Z,22.73
2018-09-15T06:42:04.951Z,12.13
2018-09-15T06:44:34.127Z,14.90
2018-09-15T06:47:03.289Z,17.90
2018-09-15T06:49:32.504Z,18.10
2018-09-15T06:52:01.697Z,21.27
2018-09-15T06:54:30.938Z,20.93
2018-09-15T06:57:00.152Z,13.60
2018-09-15T06:59:29.337Z,18.37
2018-09-15T07:02:06.319Z,14.40
2018-09-15T07:05:04.460Z,20.07
2018-09-15T07:07:33.617Z,22.70
2018-09-15T07:10:08.514Z,19.90
2018-09-15T07:13:03.549Z,24.80
2018-09-15T07:22:03.678Z,17.40
2018-09-15T07:37:03.961Z,13.90
2018-09-15T07:49:03.547Z,13.10
2018-09-15T07:57:34.975Z,17.00
2018-09-15T08:00:07.475Z,17.53
2018-09-15T08:03:04.137Z,15.43
2018-09-15T08:15:03.822Z,16.20
2018-09-15T08:17:33.005Z,15.20
2018-09-15T08:20:02.251Z,16.20
2018-09-15T08:22:31.493Z,14.40
2018-09-15T08:25:00.655Z,15.80
2018-09-15T08:27:29.837Z,14.63
2018-09-15T08:29:59.161Z,14.80
2018-09-15T08:32:28.325Z,17.60
2018-09-15T08:34:57.513Z,14.20
2018-09-15T08:37:26.703Z,14.97
2018-09-15T08:39:56.017Z,15.87
2018-09-15T08:45:25.627Z,14.67
2018-09-15T08:49:24.263Z,17.00
2018-09-15T08:51:53.466Z,16.00
2018-09-15T08:54:23.228Z,12.90
2018-09-15T08:56:52.414Z,14.70
2018-09-15T08:59:21.617Z,11.50
2018-09-15T09:01:50.786Z,12.67
2018-09-15T09:04:20.090Z,14.80
2018-09-15T09:06:49.245Z,13.97
2018-09-15T09:09:18.405Z,13.87
2018-09-15T09:11:47.621Z,13.73
2018-09-15T09:14:16.792Z,13.13
2018-09-15T09:16:45.960Z,14.50
2018-09-15T09:19:15.165Z,12.50
2018-09-15T09:21:44.305Z,14.43
2018-09-15T09:24:13.490Z,13.93
2018-09-15T09:26:42.757Z,11.80
2018-09-15T09:29:11.905Z,13.47
2018-09-15T09:31:41.125Z,13.27
2018-09-15T09:34:10.312Z,12.80
2018-09-15T09:36:39.490Z,14.10
2018-09-15T09:39:11.597Z,10.13
2018-09-15T09:41:40.929Z,12.70
2018-09-15T09:44:10.084Z,12.80
2018-09-15T09:46:39.316Z,13.00
2018-09-15T09:49:08.479Z,13.47
2018-09-15T09:51:37.662Z,14.03
2018-09-15T09:54:06.862Z,14.10
2018-09-15T09:56:36.021Z,12.73
2018-09-15T09:59:05.402Z,13.97
2018-09-15T10:01:40.122Z,10.83
2018-09-15T10:04:09.265Z,9.27
2018-09-15T10:06:38.445Z,12.70
2018-09-15T10:09:10.228Z,11.20
2018-09-15T10:11:40.432Z,9.80
2018-09-15T10:14:09.661Z,10.23
2018-09-15T10:16:39.045Z,9.80
2018-09-15T10:19:08.933Z,12.10
2018-09-15T10:21:38.565Z,9.43
2018-09-15T10:24:07.793Z,9.90
2018-09-15T10:26:36.954Z,10.47
2018-09-15T10:29:06.690Z,9.27
2018-09-15T10:31:35.909Z,9.07
2018-09-15T10:34:08.227Z,9.13
2018-09-15T10:36:37.381Z,9.97
2018-09-15T10:39:08.980Z,10.17
2018-09-15T10:41:38.200Z,11.23
2018-09-15T10:44:07.653Z,10.50
2018-09-15T10:46:36.840Z,11.43
2018-09-15T10:49:06.037Z,11.00
2018-09-15T10:51:35.213Z,9.37
2018-09-15T10:54:04.417Z,10.30
2018-09-15T10:56:33.576Z,10.33
2018-09-15T10:59:02.726Z,9.87
2018-09-15T11:04:32.624Z,9.80
2018-09-15T11:07:01.779Z,10.43
2018-09-15T11:09:31.000Z,9.50
2018-09-15T11:12:00.213Z,9.83
2018-09-15T11:14:29.393Z,8.83
2018-09-15T11:16:58.548Z,11.67
2018-09-15T11:19:27.741Z,8.90
2018-09-15T11:21:56.899Z,10.47
2018-09-15T11:24:26.080Z,11.27
2018-09-15T11:26:55.585Z,9.10
2018-09-15T11:30:12.146Z,12.97
2018-09-15T11:32:41.332Z,12.40
2018-09-15T11:35:10.488Z,12.40
2018-09-15T11:37:39.650Z,13.50
2018-09-15T11:40:08.846Z,13.80
2018-09-15T11:42:38.002Z,13.27
2018-09-15T11:45:07.203Z,9.90
2018-09-15T11:47:36.427Z,12.23
2018-09-15T11:50:05.635Z,13.20
2018-09-15T11:52:34.927Z,11.50
2018-09-15T11:55:04.188Z,10.23
2018-09-15T12:00:36.253Z,11.23
2018-09-15T12:03:05.417Z,9.50
2018-09-15T12:05:34.775Z,11.10
2018-09-15T12:08:04.017Z,11.73
2018-09-15T12:10:33.184Z,11.00
2018-09-15T12:13:02.344Z,10.80
2018-09-15T12:15:31.536Z,10.03
2018-09-15T12:18:00.694Z,8.90
2018-09-15T12:20:29.865Z,10.17
2018-09-15T12:22:59.068Z,12.37
2018-09-15T12:25:28.360Z,10.70
2018-09-15T12:27:57.563Z,9.30
2018-09-15T12:30:26.771Z,10.27
2018-09-15T12:32:55.953Z,9.17
2018-09-15T12:35:25.139Z,9.40
2018-09-15T12:37:54.396Z,10.50
2018-09-15T12:43:23.719Z,10.27
2018-09-15T12:45:52.890Z,12.10
2018-09-15T12:48:22.205Z,10.13
2018-09-15T12:50:51.413Z,10.37
2018-09-15T12:53:20.594Z,10.67
2018-09-15T12:55:49.845Z,10.13
2018-09-15T12:58:19.034Z,10.40
2018-09-15T13:00:48.198Z,10.10
2018-09-15T13:03:17.373Z,10.30
2018-09-15T13:05:46.572Z,10.73
2018-09-15T13:08:15.753Z,11.80
2018-09-15T13:10:44.917Z,11.77
2018-09-15T13:13:14.129Z,11.73
2018-09-15T13:15:43.281Z,11.57
2018-09-15T13:21:13.205Z,8.53
2018-09-15T13:24:05.559Z,9.57
2018-09-15T13:36:04.211Z,9.20
2018-09-15T13:38:33.394Z,8.87
2018-09-15T13:44:06.208Z,8.10
2018-09-15T13:47:04.621Z,8.03
2018-09-15T13:49:33.822Z,7.97
2018-09-15T13:52:03.011Z,7.60
2018-09-15T13:57:32.645Z,7.57
2018-09-15T14:00:01.820Z,5.37
2018-09-15T14:02:30.952Z,6.30
2018-09-15T14:05:00.269Z,5.23
2018-09-15T14:07:29.374Z,5.97
2018-09-15T14:09:58.612Z,6.43
2018-09-15T14:12:28.364Z,5.50
2018-09-15T14:14:57.562Z,5.77
2018-09-15T14:17:26.758Z,5.30
2018-09-15T14:19:56.006Z,5.03
2018-09-15T14:22:25.364Z,4.50
2018-09-15T14:24:54.491Z,4.90
2018-09-15T14:27:23.681Z,4.57
2018-09-15T14:29:52.849Z,4.63
2018-09-15T14:32:22.009Z,4.93
2018-09-15T14:34:51.215Z,4.50
2018-09-15T14:37:20.405Z,5.20
2018-09-15T14:39:49.695Z,4.03
2018-09-15T14:42:18.941Z,4.83
2018-09-15T14:44:48.157Z,4.67
2018-09-15T14:47:17.674Z,4.60
2018-09-15T14:49:46.873Z,3.97
2018-09-15T14:52:16.042Z,4.23
2018-09-15T14:54:45.209Z,4.13
2018-09-15T14:57:14.410Z,4.10
2018-09-15T14:59:43.597Z,3.90
2018-09-15T15:02:12.775Z,4.47
2018-09-15T15:04:41.975Z,4.27
2018-09-15T15:07:11.132Z,3.77
2018-09-15T15:09:40.474Z,3.50
2018-09-15T15:12:09.645Z,3.23
2018-09-15T15:15:04.429Z,3.73
2018-09-15T15:17:33.637Z,3.90
2018-09-15T15:20:02.864Z,3.50
2018-09-15T15:22:32.022Z,3.43
2018-09-15T15:25:02.453Z,3.70
2018-09-15T15:27:31.633Z,3.47
2018-09-15T15:30:06.808Z,4.10
2018-09-15T15:32:36.230Z,3.83
2018-09-15T15:35:05.421Z,2.80
2018-09-15T15:37:34.591Z,5.90
2018-09-15T15:40:03.765Z,3.83
2018-09-15T15:42:32.991Z,4.13
2018-09-15T15:45:07.691Z,3.87
2018-09-15T15:48:04.177Z,3.33
2018-09-15T15:50:33.352Z,3.70
2018-09-15T15:53:08.529Z,3.53
2018-09-15T15:59:04.652Z,6.17
2018-09-15T16:07:34.172Z,3.40
2018-09-15T16:12:37.581Z,2.63
2018-09-15T16:15:06.777Z,3.00
2018-09-15T16:17:35.928Z,3.20
2018-09-15T16:20:05.150Z,3.00
2018-09-15T16:22:34.297Z,2.47
2018-09-15T16:25:06.649Z,3.10
2018-09-15T16:28:05.023Z,2.53
2018-09-15T16:30:34.252Z,2.90
2018-09-15T16:33:07.125Z,2.97
2018-09-15T16:36:03.990Z,4.50
2018-09-15T16:41:34.169Z,3.70
2018-09-15T16:44:03.457Z,4.00
2018-09-15T16:46:32.726Z,4.20
2018-09-15T16:49:01.961Z,3.50
2018-09-15T16:51:31.134Z,3.40
2018-09-15T16:54:00.313Z,3.93
2018-09-15T16:56:29.501Z,3.73
2018-09-15T16:58:59.281Z,3.87
2018-09-15T17:07:19.904Z,3.80
2018-09-15T17:10:05.653Z,4.10
2018-09-15T17:13:04.110Z,4.30
2018-09-15T17:25:04.753Z,3.50
2018-09-15T17:31:04.038Z,4.30
2018-09-15T17:43:04.201Z,3.70
2018-09-15T17:51:34.144Z,4.13
2018-09-15T17:54:07.206Z,3.47
2018-09-15T17:57:05.624Z,4.47
2018-09-15T18:00:04.478Z,4.43
2018-09-15T18:06:04.148Z,3.93
2018-09-15T18:14:33.745Z,3.73
2018-09-15T18:17:08.462Z,3.63
2018-09-15T18:19:37.742Z,3.77
2018-09-15T18:22:07.010Z,4.03
2018-09-15T18:24:36.666Z,4.10
2018-09-15T18:27:05.914Z,3.20
2018-09-15T18:29:35.182Z,4.23
2018-09-15T18:32:07.643Z,3.63
2018-09-15T18:34:36.793Z,4.40
2018-09-15T18:37:06.051Z,4.50
2018-09-15T18:39:35.229Z,4.20
2018-09-15T18:42:04.378Z,4.00
2018-09-15T18:44:33.599Z,4.57
2018-09-15T18:47:02.801Z,4.37
2018-09-15T18:49:31.970Z,5.13
2018-09-15T18:52:01.177Z,4.30
2018-09-15T18:54:30.957Z,4.60
2018-09-15T18:57:00.186Z,5.30
2018-09-15T18:59:29.415Z,4.13
2018-09-15T19:02:06.377Z,4.70
2018-09-15T19:04:35.570Z,4.80
2018-09-15T19:10:05.612Z,4.97
2018-09-15T19:12:34.836Z,5.57
2018-09-15T19:15:04.358Z,5.83
2018-09-15T19:17:33.518Z,6.00
2018-09-15T19:20:02.698Z,6.00
2018-09-15T19:22:32.091Z,6.33
2018-09-15T19:25:01.297Z,5.87
2018-09-15T19:27:30.469Z,6.37
2018-09-15T19:29:59.925Z,6.70
2018-09-15T19:32:29.112Z,6.97
2018-09-15T19:34:58.702Z,6.10
2018-09-15T19:37:27.928Z,6.50
2018-09-15T19:40:07.111Z,7.30
2018-09-15T19:42:36.313Z,6.23
2018-09-15T19:45:06.058Z,6.40
2018-09-15T19:48:04.481Z,6.30
2018-09-15T19:56:34.985Z,6.33
2018-09-15T19:59:07.599Z,7.03
2018-09-15T20:02:04.124Z,6.30
2018-09-15T20:04:33.866Z,6.40
2018-09-15T20:07:08.609Z,6.90
2018-09-15T20:10:04.429Z,7.20
2018-09-15T20:12:33.659Z,6.90
2018-09-15T20:15:19.336Z,6.40
2018-09-15T20:17:47.050Z,7.43
2018-09-15T20:20:14.718Z,6.80
2018-09-15T20:22:43.950Z,6.87
2018-09-15T20:25:13.226Z,8.37
2018-09-15T20:27:42.369Z,7.33
2018-09-15T20:30:11.579Z,7.60
2018-09-15T20:32:41.445Z,7.40
2018-09-15T20:35:10.765Z,6.47
2018-09-15T20:38:05.067Z,7.47
2018-09-15T20:43:34.581Z,6.33
2018-09-15T20:46:06.784Z,6.93
2018-09-15T20:48:35.977Z,7.57
2018-09-15T20:51:08.547Z,7.63
2018-09-15T20:54:04.157Z,7.40
2018-09-15T20:56:33.322Z,7.30
2018-09-15T20:59:02.494Z,6.60
2018-09-15T21:01:32.637Z,7.87
2018-09-15T21:04:07.438Z,7.10
2018-09-15T21:06:36.717Z,6.90
2018-09-15T21:09:09.780Z,6.70
2018-09-15T21:11:39.301Z,6.77
2018-09-15T21:14:08.461Z,7.27
2018-09-15T21:16:37.896Z,5.90
2018-09-15T21:19:07.251Z,6.70
2018-09-15T21:21:36.506Z,6.20
2018-09-15T21:24:05.740Z,7.00
2018-09-15T21:29:35.044Z,7.23
2018-09-15T21:32:07.878Z,7.00
2018-09-15T21:34:37.095Z,6.33
2018-09-15T21:37:06.813Z,6.80
2018-09-15T21:39:35.992Z,6.60
2018-09-15T21:42:05.238Z,6.03
2018-09-15T21:44:34.407Z,5.97
2018-09-15T21:47:03.604Z,7.37
2018-09-15T21:49:32.825Z,6.70
2018-09-15T21:52:01.995Z,6.40
2018-09-15T21:54:31.165Z,5.83
2018-09-15T21:57:00.366Z,6.83
2018-09-15T22:05:29.503Z,7.60
2018-09-15T22:07:58.662Z,7.63
2018-09-15T22:13:27.985Z,10.23
2018-09-15T22:15:57.189Z,11.60
2018-09-15T22:18:28.186Z,14.50
2018-09-15T22:20:57.385Z,14.23
2018-09-15T22:23:26.612Z,15.03
2018-09-15T22:26:08.389Z,13.53
2018-09-15T22:28:37.550Z,15.20
2018-09-15T22:31:07.033Z,13.97
2018-09-15T22:33:36.225Z,14.67
2018-09-15T22:36:05.416Z,15.30
2018-09-15T22:41:34.652Z,16.00
2018-09-15T22:44:03.812Z,15.97
2018-09-15T22:46:32.978Z,16.30
2018-09-15T22:49:02.225Z,17.20
2018-09-15T22:51:31.377Z,17.90
2018-09-15T22:54:00.611Z,15.77
2018-09-15T22:56:29.969Z,17.47
2018-09-15T22:58:59.127Z,17.80
2018-09-15T23:01:28.343Z,17.10
2018-09-15T23:04:03.556Z,17.33
2018-09-15T23:06:33.153Z,16.00
2018-09-15T23:09:02.364Z,15.80
2018-09-15T23:11:31.633Z,16.40
2018-09-15T23:14:00.784Z,16.33
2018-09-15T23:16:29.958Z,16.57
2018-09-15T23:18:59.868Z,16.90
2018-09-15T23:21:28.984Z,17.67
2018-09-15T23:23:58.341Z,15.83
2018-09-15T23:26:27.629Z,16.50
2018-09-15T23:28:56.892Z,15.73
2018-09-15T23:31:26.088Z,16.70
2018-09-15T23:33:55.258Z,17.20
2018-09-15T23:36:24.537Z,17.00
2018-09-15T23:38:53.733Z,15.90
2018-09-15T23:41:22.952Z,15.80
2018-09-15T23:43:52.129Z,14.70
2018-09-15T23:46:21.311Z,13.60
2018-09-15T23:48:50.477Z,13.80
2018-09-15T23:51:19.673Z,14.80
2018-09-15T23:53:48.912Z,13.10
2018-09-15T23:56:18.170Z,14.97
2018-09-15T23:58:47.339Z,14.70
